createdAt,value
2022-08-07T00:00:26.576Z,12.31
2022-08-07T00:02:56.105Z,12.26
2022-08-07T00:05:24.186Z,12.20
2022-08-07T00:07:59.915Z,12.19
2022-08-07T00:10:30.417Z,12.12
2022-08-07T00:13:02.476Z,12.06
2022-08-07T00:15:46.187Z,12.04
2022-08-07T00:18:19.789Z,12.01
2022-08-07T00:20:50.765Z,11.98
2022-08-07T00:23:21.370Z,11.93
2022-08-07T00:25:58.867Z,11.84
2022-08-07T00:28:33.807Z,11.84
2022-08-07T00:31:06.388Z,11.83
2022-08-07T00:33:40.958Z,11.79
2022-08-07T00:36:08.762Z,11.78
2022-08-07T00:38:37.451Z,11.74
2022-08-07T00:41:10.055Z,11.68
2022-08-07T00:43:58.939Z,11.64
2022-08-07T00:46:29.204Z,11.58
2022-08-07T00:48:56.251Z,11.53
2022-08-07T00:51:57.306Z,11.47
2022-08-07T00:54:19.672Z,11.45
2022-08-07T00:56:49.552Z,11.43
2022-08-07T00:59:20.342Z,11.38
2022-08-07T01:01:59.710Z,11.34
2022-08-07T01:04:26.900Z,11.33
2022-08-07T01:06:57.312Z,11.33
2022-08-07T01:10:04.332Z,11.31
2022-08-07T01:12:30.177Z,11.23
2022-08-07T01:15:00.947Z,11.18
2022-08-07T01:17:29.338Z,11.17
2022-08-07T01:20:02.049Z,11.16
2022-08-07T01:22:31.336Z,11.09
2022-08-07T01:24:59.480Z,11.05
2022-08-07T01:27:27.220Z,11.05
2022-08-07T01:30:00.497Z,10.97
2022-08-07T01:32:28.013Z,10.92
2022-08-07T01:34:56.023Z,10.94
2022-08-07T01:37:24.704Z,10.91
2022-08-07T01:39:53.108Z,10.91
2022-08-07T01:42:38.329Z,10.88
2022-08-07T01:45:15.777Z,10.79
2022-08-07T01:48:19.359Z,10.75
2022-08-07T01:50:33.067Z,10.74
2022-08-07T01:53:04.893Z,10.72
2022-08-07T01:56:02.960Z,10.74
2022-08-07T01:58:37.496Z,10.74
2022-08-07T02:01:44.776Z,10.66
2022-08-07T02:04:14.026Z,10.58
2022-08-07T02:06:44.433Z,10.54
2022-08-07T02:09:51.870Z,10.54
2022-08-07T02:12:17.862Z,10.52
2022-08-07T02:14:52.939Z,10.51
2022-08-07T02:17:25.009Z,10.47
2022-08-07T02:20:04.873Z,10.48
2022-08-07T02:22:41.155Z,10.45
2022-08-07T02:25:14.002Z,10.43
2022-08-07T02:27:51.199Z,10.40
2022-08-07T02:30:19.579Z,10.36
2022-08-07T02:33:03.952Z,10.39
2022-08-07T02:36:30.176Z,10.33
2022-08-07T02:38:32.376Z,10.26
2022-08-07T02:41:01.488Z,10.19
2022-08-07T02:43:31.734Z,10.17
2022-08-07T02:46:02.380Z,10.16
2022-08-07T02:48:31.014Z,10.13
2022-08-07T02:51:01.503Z,10.12
2022-08-07T02:53:33.997Z,10.10
2022-08-07T02:56:17.523Z,10.12
2022-08-07T02:58:54.230Z,10.09
2022-08-07T03:01:35.006Z,10.10
2022-08-07T03:04:07.035Z,10.08
2022-08-07T03:06:39.954Z,10.03
2022-08-07T03:09:11.164Z,9.99
2022-08-07T03:11:51.645Z,9.98
2022-08-07T03:14:22.604Z,9.96
2022-08-07T03:16:49.781Z,9.97
2022-08-07T03:19:20.322Z,9.95
2022-08-07T03:21:50.471Z,9.95
2022-08-07T03:24:25.951Z,9.94
2022-08-07T03:26:59.797Z,9.87
2022-08-07T03:29:37.421Z,9.87
2022-08-07T03:32:08.282Z,9.86
2022-08-07T03:34:47.319Z,9.86
2022-08-07T03:37:29.573Z,9.80
2022-08-07T03:40:16.001Z,9.78
2022-08-07T03:42:44.262Z,9.82
2022-08-07T03:45:12.916Z,9.82
2022-08-07T03:47:58.227Z,9.82
2022-08-07T03:50:25.679Z,9.81
2022-08-07T03:52:59.871Z,9.80
2022-08-07T03:55:52.887Z,9.76
2022-08-07T03:59:07.401Z,9.68
2022-08-07T04:01:07.633Z,9.63
2022-08-07T04:03:38.826Z,9.61
2022-08-07T04:06:37.118Z,9.63
2022-08-07T04:09:06.384Z,9.60
2022-08-07T04:12:23.525Z,9.62
2022-08-07T04:14:38.064Z,9.58
2022-08-07T04:17:20.108Z,9.57
2022-08-07T04:19:52.170Z,9.53
2022-08-07T04:22:23.288Z,9.52
2022-08-07T04:24:55.064Z,9.49
2022-08-07T04:27:25.629Z,9.49
2022-08-07T04:30:01.565Z,9.46
2022-08-07T04:32:34.421Z,9.45
2022-08-07T04:35:05.589Z,9.38
2022-08-07T04:38:01.072Z,9.34
2022-08-07T04:40:22.036Z,9.30
2022-08-07T04:42:53.649Z,9.29
2022-08-07T04:45:52.119Z,9.31
2022-08-07T04:48:28.271Z,9.33
2022-08-07T04:51:10.274Z,9.33
2022-08-07T04:54:01.966Z,9.34
2022-08-07T04:58:13.809Z,9.30
2022-08-07T05:00:09.665Z,9.31
2022-08-07T05:03:00.991Z,9.35
2022-08-07T05:05:54.241Z,9.30
2022-08-07T05:08:59.349Z,9.32
2022-08-07T05:11:24.260Z,9.39
2022-08-07T05:14:52.258Z,9.46
2022-08-07T05:16:53.975Z,9.42
2022-08-07T05:19:32.651Z,9.50
2022-08-07T05:22:13.207Z,9.50
2022-08-07T05:24:59.715Z,9.56
2022-08-07T05:28:16.942Z,9.58
2022-08-07T05:30:30.005Z,9.65
2022-08-07T05:32:59.780Z,9.75
2022-08-07T05:35:33.371Z,9.82
2022-08-07T05:38:09.066Z,9.89
2022-08-07T05:40:50.584Z,9.98
2022-08-07T05:43:19.447Z,10.05
2022-08-07T05:46:06.982Z,10.12
2022-08-07T05:48:34.241Z,10.18
2022-08-07T05:51:03.374Z,10.25
2022-08-07T05:54:12.676Z,10.35
2022-08-07T05:56:20.246Z,10.54
2022-08-07T05:59:01.517Z,10.79
2022-08-07T06:01:35.882Z,11.01
2022-08-07T06:04:04.872Z,11.22
2022-08-07T06:06:34.646Z,11.38
2022-08-07T06:09:04.315Z,11.54
2022-08-07T06:11:33.837Z,11.70
2022-08-07T06:14:12.958Z,11.84
2022-08-07T06:16:50.714Z,12.04
2022-08-07T06:19:47.523Z,12.23
2022-08-07T06:22:15.937Z,12.44
2022-08-07T06:24:58.331Z,12.61
2022-08-07T06:27:44.224Z,12.83
2022-08-07T06:30:32.173Z,13.03
2022-08-07T06:33:04.013Z,13.25
2022-08-07T06:35:45.588Z,13.46
2022-08-07T06:38:20.157Z,13.74
2022-08-07T06:40:51.235Z,13.96
2022-08-07T06:43:23.605Z,14.16
2022-08-07T06:45:51.675Z,14.41
2022-08-07T06:48:25.046Z,14.56
2022-08-07T06:50:55.022Z,14.78
2022-08-07T06:55:28.350Z,14.94
2022-08-07T06:56:14.844Z,15.13
2022-08-07T07:00:14.546Z,15.28
2022-08-07T07:01:43.702Z,15.37
2022-08-07T07:04:32.608Z,15.54
2022-08-07T07:07:10.666Z,15.69
2022-08-07T07:09:48.184Z,15.80
2022-08-07T07:12:31.470Z,15.95
2022-08-07T07:15:24.133Z,15.99
2022-08-07T07:18:01.155Z,16.12
2022-08-07T07:20:34.091Z,16.25
2022-08-07T07:24:08.348Z,16.29
2022-08-07T07:26:34.780Z,16.39
2022-08-07T07:29:56.559Z,16.49
2022-08-07T07:31:51.724Z,16.55
2022-08-07T07:34:30.933Z,16.67
2022-08-07T07:37:14.317Z,16.76
2022-08-07T07:39:54.297Z,16.87
2022-08-07T07:42:25.771Z,16.94
2022-08-07T07:45:02.312Z,16.93
2022-08-07T07:47:30.519Z,16.94
2022-08-07T07:50:32.745Z,16.85
2022-08-07T07:53:20.103Z,16.74
2022-08-07T07:55:54.841Z,16.91
2022-08-07T07:58:29.508Z,16.94
2022-08-07T08:00:59.136Z,17.00
2022-08-07T08:04:09.698Z,17.04
2022-08-07T08:06:18.726Z,17.05
2022-08-07T08:08:50.278Z,17.16
2022-08-07T08:11:47.118Z,17.29
2022-08-07T08:14:05.909Z,17.38
2022-08-07T08:16:49.484Z,17.39
2022-08-07T08:20:18.169Z,17.41
2022-08-07T08:22:33.216Z,17.34
2022-08-07T08:25:41.933Z,17.47
2022-08-07T08:28:16.867Z,17.44
2022-08-07T08:30:56.323Z,17.54
2022-08-07T08:33:25.206Z,17.61
2022-08-07T08:35:58.027Z,17.70
2022-08-07T08:38:44.622Z,17.82
2022-08-07T08:41:21.607Z,18.01
2022-08-07T08:44:14.912Z,18.00
2022-08-07T08:47:04.544Z,18.04
2022-08-07T08:50:35.413Z,18.12
2022-08-07T08:53:22.677Z,17.85
2022-08-07T08:56:02.967Z,17.92
2022-08-07T08:58:47.437Z,18.07
2022-08-07T09:01:46.511Z,18.16
2022-08-07T09:04:46.405Z,18.08
2022-08-07T09:07:46.156Z,18.18
2022-08-07T09:10:59.942Z,18.28
2022-08-07T09:13:45.420Z,18.35
2022-08-07T09:16:33.910Z,18.42
2022-08-07T09:19:51.289Z,18.42
2022-08-07T09:24:31.769Z,18.69
2022-08-07T09:25:39.457Z,18.58
2022-08-07T09:30:04.694Z,18.70
2022-08-07T09:31:33.661Z,18.75
2022-08-07T09:34:18.169Z,18.83
2022-08-07T09:37:17.022Z,18.92
2022-08-07T09:40:11.729Z,18.81
2022-08-07T09:42:58.735Z,18.86
2022-08-07T09:47:24.152Z,18.97
2022-08-07T09:50:01.739Z,19.11
2022-08-07T09:52:16.072Z,19.22
2022-08-07T09:56:02.886Z,19.24
2022-08-07T09:58:32.182Z,19.38
2022-08-07T10:01:53.825Z,19.46
2022-08-07T10:04:45.819Z,19.57
2022-08-07T10:07:53.068Z,19.61
2022-08-07T10:11:16.963Z,19.86
2022-08-07T10:14:01.294Z,19.85
2022-08-07T10:16:53.610Z,19.83
2022-08-07T10:19:41.136Z,19.93
2022-08-07T10:22:17.592Z,19.76
2022-08-07T10:25:07.210Z,19.83
2022-08-07T10:28:02.351Z,19.89
2022-08-07T10:30:59.120Z,20.06
2022-08-07T10:34:06.308Z,20.14
2022-08-07T10:36:49.281Z,20.08
2022-08-07T10:40:03.107Z,20.09
2022-08-07T10:42:57.377Z,19.74
2022-08-07T10:46:01.572Z,19.85
2022-08-07T10:48:36.132Z,20.09
2022-08-07T10:51:16.272Z,20.27
2022-08-07T10:54:21.996Z,20.47
2022-08-07T10:57:08.438Z,20.61
2022-08-07T11:00:04.282Z,20.60
2022-08-07T11:02:49.425Z,20.65
2022-08-07T11:05:50.902Z,20.66
2022-08-07T11:08:33.010Z,20.74
2022-08-07T11:11:08.213Z,20.58
2022-08-07T11:14:45.488Z,20.51
2022-08-07T11:16:39.643Z,20.71
2022-08-07T11:19:37.580Z,20.70
2022-08-07T11:22:26.622Z,20.90
2022-08-07T11:25:47.903Z,21.13
2022-08-07T11:28:24.760Z,21.12
2022-08-07T11:30:52.383Z,21.16
2022-08-07T11:33:54.267Z,21.25
2022-08-07T11:36:32.217Z,21.47
2022-08-07T11:39:14.599Z,21.67
2022-08-07T11:42:03.358Z,21.61
2022-08-07T11:44:58.916Z,21.67
2022-08-07T11:47:56.119Z,21.62
2022-08-07T11:50:57.371Z,21.60
2022-08-07T11:54:09.784Z,21.51
2022-08-07T11:56:56.252Z,21.57
2022-08-07T12:00:12.044Z,21.47
2022-08-07T12:03:42.076Z,21.49
2022-08-07T12:06:40.364Z,21.46
2022-08-07T12:09:36.753Z,21.43
2022-08-07T12:12:23.361Z,21.52
2022-08-07T12:15:46.540Z,21.56
2022-08-07T12:18:29.903Z,21.58
2022-08-07T12:21:10.685Z,21.63
2022-08-07T12:24:36.860Z,21.77
2022-08-07T12:27:05.243Z,21.84
2022-08-07T12:29:52.627Z,21.96
2022-08-07T12:32:42.944Z,22.03
2022-08-07T12:35:13.601Z,21.88
2022-08-07T12:38:10.659Z,21.91
2022-08-07T12:40:50.821Z,21.76
2022-08-07T12:44:01.800Z,21.69
2022-08-07T12:46:34.844Z,21.78
2022-08-07T12:49:48.866Z,21.83
2022-08-07T12:52:46.114Z,21.86
2022-08-07T12:55:41.044Z,21.91
2022-08-07T12:58:16.188Z,21.86
2022-08-07T13:01:17.490Z,21.90
2022-08-07T13:04:18.872Z,22.02
2022-08-07T13:07:08.338Z,21.96
2022-08-07T13:10:19.679Z,21.97
2022-08-07T13:13:11.193Z,21.97
2022-08-07T13:16:32.840Z,22.16
2022-08-07T13:20:13.410Z,22.21
2022-08-07T13:22:56.654Z,22.20
2022-08-07T13:25:32.132Z,22.17
2022-08-07T13:28:14.167Z,22.15
2022-08-07T13:31:02.182Z,22.18
2022-08-07T13:34:31.596Z,22.20
2022-08-07T13:36:59.473Z,22.37
2022-08-07T13:40:33.147Z,22.44
2022-08-07T13:42:25.766Z,22.45
2022-08-07T13:45:11.610Z,22.42
2022-08-07T13:48:08.250Z,22.03
2022-08-07T13:50:35.898Z,22.21
2022-08-07T13:53:26.591Z,22.37
2022-08-07T13:56:19.284Z,22.44
2022-08-07T13:59:05.468Z,22.45
2022-08-07T14:01:51.232Z,22.43
2022-08-07T14:04:29.735Z,22.30
2022-08-07T14:07:09.200Z,22.39
2022-08-07T14:10:01.912Z,22.45
2022-08-07T14:12:54.070Z,22.42
2022-08-07T14:15:35.279Z,22.43
2022-08-07T14:18:27.318Z,22.44
2022-08-07T14:21:08.179Z,22.36
2022-08-07T14:24:02.290Z,22.36
2022-08-07T14:27:02.563Z,22.46
2022-08-07T14:30:06.548Z,22.52
2022-08-07T14:32:43.098Z,22.50
2022-08-07T14:35:16.168Z,22.45
2022-08-07T14:38:06.141Z,22.38
2022-08-07T14:40:35.747Z,22.48
2022-08-07T14:43:57.910Z,22.52
2022-08-07T14:46:04.009Z,22.53
2022-08-07T14:48:33.479Z,22.52
2022-08-07T14:52:04.989Z,22.52
2022-08-07T14:54:34.558Z,22.34
2022-08-07T14:57:06.795Z,22.32
2022-08-07T15:02:34.241Z,22.07
2022-08-07T15:13:03.540Z,22.10
2022-08-07T15:13:35.913Z,22.30
2022-08-07T15:16:10.826Z,22.37
2022-08-07T15:18:45.429Z,22.43
2022-08-07T15:27:17.319Z,22.52
2022-08-07T15:33:01.411Z,22.38
2022-08-07T15:36:00.702Z,22.43
2022-08-07T15:38:31.076Z,22.46
2022-08-07T15:41:23.991Z,22.52
2022-08-07T15:44:12.548Z,22.56
2022-08-07T15:46:51.979Z,22.56
2022-08-07T15:52:30.265Z,22.51
2022-08-07T15:55:03.563Z,22.45
2022-08-07T15:57:47.460Z,22.51
2022-08-07T16:00:31.863Z,22.53
2022-08-07T16:03:21.706Z,22.57
2022-08-07T16:06:01.751Z,22.57
2022-08-07T16:08:38.616Z,22.59
2022-08-07T16:11:26.859Z,22.55
2022-08-07T16:14:17.149Z,22.65
2022-08-07T16:17:14.913Z,22.64
2022-08-07T16:19:59.200Z,22.60
2022-08-07T16:22:33.443Z,22.65
2022-08-07T16:25:22.754Z,22.65
2022-08-07T16:30:08.642Z,22.48
2022-08-07T16:31:51.429Z,22.56
2022-08-07T16:34:33.807Z,22.59
2022-08-07T16:38:03.965Z,22.57
2022-08-07T16:41:08.486Z,22.60
2022-08-07T16:44:03.929Z,22.49
2022-08-07T16:47:16.541Z,22.49
2022-08-07T16:50:20.822Z,22.54
2022-08-07T16:53:09.841Z,22.60
2022-08-07T16:56:11.859Z,22.57
2022-08-07T16:59:11.059Z,22.49
2022-08-07T17:02:10.749Z,22.52
2022-08-07T17:04:57.665Z,22.58
2022-08-07T17:07:55.812Z,22.53
2022-08-07T17:10:38.540Z,22.47
2022-08-07T17:13:38.715Z,22.49
2022-08-07T17:16:29.376Z,22.41
2022-08-07T17:19:05.975Z,22.27
2022-08-07T17:21:50.811Z,22.30
2022-08-07T17:24:38.834Z,22.34
2022-08-07T17:27:19.815Z,22.31
2022-08-07T17:30:14.721Z,22.28
2022-08-07T17:33:05.095Z,22.30
2022-08-07T17:35:55.751Z,22.24
2022-08-07T17:38:33.934Z,22.21
2022-08-07T17:42:00.973Z,22.16
2022-08-07T17:44:41.449Z,21.95
2022-08-07T17:47:38.267Z,21.93
2022-08-07T17:50:19.043Z,21.97
2022-08-07T17:52:59.833Z,21.93
2022-08-07T17:56:00.040Z,21.86
2022-08-07T17:58:46.533Z,21.88
2022-08-07T18:01:28.907Z,21.83
2022-08-07T18:04:21.577Z,21.86
2022-08-07T18:07:22.606Z,21.82
2022-08-07T18:10:05.930Z,21.82
2022-08-07T18:12:51.567Z,21.68
2022-08-07T18:15:33.019Z,21.68
2022-08-07T18:18:46.314Z,21.62
2022-08-07T18:21:37.277Z,21.59
2022-08-07T18:24:33.827Z,21.64
2022-08-07T18:27:39.056Z,21.61
2022-08-07T18:30:31.044Z,21.49
2022-08-07T18:33:15.120Z,21.43
2022-08-07T18:36:14.145Z,21.22
2022-08-07T18:40:08.306Z,21.23
2022-08-07T18:41:59.197Z,21.12
2022-08-07T18:45:43.639Z,21.05
2022-08-07T18:48:00.729Z,20.96
2022-08-07T18:50:57.421Z,20.81
2022-08-07T18:53:44.265Z,20.77
2022-08-07T18:56:58.290Z,20.75
2022-08-07T18:59:46.791Z,20.64
2022-08-07T19:02:55.665Z,20.59
2022-08-07T19:06:04.028Z,20.49
2022-08-07T19:08:46.297Z,20.49
2022-08-07T19:11:36.515Z,20.33
2022-08-07T19:14:17.319Z,20.30
2022-08-07T19:17:06.846Z,20.18
2022-08-07T19:20:29.314Z,20.07
2022-08-07T19:23:57.361Z,19.97
2022-08-07T19:26:24.684Z,19.85
2022-08-07T19:31:05.815Z,19.85
2022-08-07T19:32:18.511Z,19.69
2022-08-07T19:35:05.981Z,19.65
2022-08-07T19:37:56.392Z,19.60
2022-08-07T19:40:31.091Z,19.50
2022-08-07T19:43:11.025Z,19.46
2022-08-07T19:46:04.790Z,19.40
2022-08-07T19:48:42.605Z,19.32
2022-08-07T19:51:20.002Z,19.22
2022-08-07T19:54:32.103Z,19.13
2022-08-07T19:57:56.736Z,19.10
2022-08-07T19:59:41.399Z,18.99
2022-08-07T20:02:19.032Z,18.93
2022-08-07T20:04:50.382Z,18.87
2022-08-07T20:07:47.071Z,18.80
2022-08-07T20:10:36.968Z,18.73
2022-08-07T20:13:23.547Z,18.67
2022-08-07T20:15:57.811Z,18.65
2022-08-07T20:18:32.547Z,18.60
2022-08-07T20:21:02.532Z,18.53
2022-08-07T20:23:40.693Z,18.49
2022-08-07T20:26:10.739Z,18.45
2022-08-07T20:28:40.013Z,18.36
2022-08-07T20:31:21.071Z,18.26
2022-08-07T20:33:56.679Z,18.21
2022-08-07T20:36:27.380Z,18.21
2022-08-07T20:39:00.565Z,18.13
2022-08-07T20:41:38.453Z,18.16
2022-08-07T20:44:12.879Z,18.06
2022-08-07T20:46:44.408Z,18.06
2022-08-07T20:50:00.291Z,17.98
2022-08-07T20:52:06.617Z,18.00
2022-08-07T20:54:53.076Z,17.85
2022-08-07T20:57:29.969Z,17.78
2022-08-07T21:00:09.461Z,17.73
2022-08-07T21:03:00.958Z,17.71
2022-08-07T21:05:51.126Z,17.64
2022-08-07T21:08:36.469Z,17.54
2022-08-07T21:11:11.051Z,17.47
2022-08-07T21:14:16.710Z,17.43
2022-08-07T21:16:57.022Z,17.40
2022-08-07T21:19:51.784Z,17.28
2022-08-07T21:22:28.743Z,17.22
2022-08-07T21:25:13.157Z,17.21
2022-08-07T21:28:01.620Z,17.19
2022-08-07T21:30:46.927Z,17.18
2022-08-07T21:33:38.211Z,17.11
2022-08-07T21:36:31.274Z,17.14
2022-08-07T21:39:47.873Z,17.04
2022-08-07T21:42:48.962Z,16.99
2022-08-07T21:46:03.415Z,16.88
2022-08-07T21:48:34.432Z,16.77
2022-08-07T21:51:20.102Z,16.74
2022-08-07T21:54:01.211Z,16.72
2022-08-07T21:56:57.934Z,16.66
2022-08-07T22:00:03.971Z,16.71
2022-08-07T22:03:05.703Z,16.70
2022-08-07T22:05:45.530Z,16.63
2022-08-07T22:08:18.419Z,16.56
2022-08-07T22:10:50.339Z,16.55
2022-08-07T22:13:24.530Z,16.51
2022-08-07T22:16:43.092Z,16.42
2022-08-07T22:19:29.285Z,16.40
2022-08-07T22:22:27.483Z,16.41
2022-08-07T22:25:08.315Z,16.37
2022-08-07T22:28:07.750Z,16.29
2022-08-07T22:30:54.840Z,16.18
2022-08-07T22:33:52.706Z,16.18
2022-08-07T22:36:46.542Z,16.20
2022-08-07T22:39:53.532Z,16.19
2022-08-07T22:42:32.646Z,16.13
2022-08-07T22:45:11.072Z,16.11
2022-08-07T22:48:13.683Z,16.09
2022-08-07T22:51:52.032Z,16.04
2022-08-07T22:54:52.263Z,15.94
2022-08-07T22:57:59.096Z,15.94
2022-08-07T23:00:35.138Z,15.90
2022-08-07T23:03:21.594Z,15.88
2022-08-07T23:06:24.024Z,15.82
2022-08-07T23:10:04.409Z,15.79
2022-08-07T23:12:35.799Z,15.78
2022-08-07T23:16:06.348Z,15.75
2022-08-07T23:19:47.934Z,15.71
2022-08-07T23:22:24.136Z,15.63
2022-08-07T23:25:11.588Z,15.64
2022-08-07T23:28:21.632Z,15.60
2022-08-07T23:31:06.777Z,15.54
2022-08-07T23:34:20.847Z,15.58
2022-08-07T23:37:37.990Z,15.53
2022-08-07T23:40:35.432Z,15.44
2022-08-07T23:43:40.505Z,15.40
2022-08-07T23:46:27.279Z,15.39
2022-08-07T23:49:00.147Z,15.40
2022-08-07T23:52:58.476Z,15.36
2022-08-07T23:54:52.941Z,15.30
2022-08-07T23:57:52.284Z,15.26
